sensor_id;sensor_type;location;lat;lon;timestamp;P1;durP1;ratioP1;P2;durP2;ratioP2
22973;SDS011;11653;50.848;4.584;2023-04-15T00:01:22;19.67;;;13.13;;
22973;SDS011;11653;50.848;4.584;2023-04-15T00:03:52;32.07;;;13.77;;
22973;SDS011;11653;50.848;4.584;2023-04-15T00:06:20;27.87;;;14.27;;
22973;SDS011;11653;50.848;4.584;2023-04-15T00:08:46;30.90;;;15.50;;
22973;SDS011;11653;50.848;4.584;2023-04-15T00:11:16;22.77;;;12.83;;
22973;SDS011;11653;50.848;4.584;2023-04-15T00:13:45;24.83;;;13.50;;
22973;SDS011;11653;50.848;4.584;2023-04-15T00:16:10;22.20;;;14.07;;
22973;SDS011;11653;50.848;4.584;2023-04-15T00:18:36;22.27;;;13.93;;
22973;SDS011;11653;50.848;4.584;2023-04-15T00:21:02;20.70;;;13.27;;
22973;SDS011;11653;50.848;4.584;2023-04-15T00:23:29;20.70;;;12.87;;
22973;SDS011;11653;50.848;4.584;2023-04-15T00:25:54;18.90;;;13.00;;
22973;SDS011;11653;50.848;4.584;2023-04-15T00:28:23;20.50;;;13.77;;
22973;SDS011;11653;50.848;4.584;2023-04-15T00:30:49;20.20;;;13.27;;
22973;SDS011;11653;50.848;4.584;2023-04-15T00:33:15;19.70;;;13.53;;
22973;SDS011;11653;50.848;4.584;2023-04-15T00:35:44;20.97;;;13.70;;
22973;SDS011;11653;50.848;4.584;2023-04-15T00:38:10;19.53;;;13.97;;
22973;SDS011;11653;50.848;4.584;2023-04-15T00:40:36;22.07;;;13.30;;
22973;SDS011;11653;50.848;4.584;2023-04-15T00:43:02;22.33;;;12.83;;
22973;SDS011;11653;50.848;4.584;2023-04-15T00:45:28;21.13;;;13.60;;
22973;SDS011;11653;50.848;4.584;2023-04-15T00:47:54;20.27;;;13.07;;
22973;SDS011;11653;50.848;4.584;2023-04-15T00:50:20;19.87;;;11.93;;
22973;SDS011;11653;50.848;4.584;2023-04-15T00:52:46;19.07;;;11.73;;
22973;SDS011;11653;50.848;4.584;2023-04-15T00:55:12;19.33;;;11.87;;
22973;SDS011;11653;50.848;4.584;2023-04-15T00:57:38;20.87;;;11.60;;
22973;SDS011;11653;50.848;4.584;2023-04-15T01:00:04;17.20;;;11.00;;
22973;SDS011;11653;50.848;4.584;2023-04-15T01:02:33;18.83;;;12.13;;
22973;SDS011;11653;50.848;4.584;2023-04-15T01:04:59;22.13;;;12.13;;
22973;SDS011;11653;50.848;4.584;2023-04-15T01:07:25;26.67;;;14.20;;
22973;SDS011;11653;50.848;4.584;2023-04-15T01:09:51;27.80;;;13.20;;
22973;SDS011;11653;50.848;4.584;2023-04-15T01:12:17;21.43;;;12.50;;
22973;SDS011;11653;50.848;4.584;2023-04-15T01:14:44;23.30;;;13.87;;
22973;SDS011;11653;50.848;4.584;2023-04-15T01:17:10;24.97;;;13.23;;
22973;SDS011;11653;50.848;4.584;2023-04-15T01:19:37;23.43;;;12.70;;
22973;SDS011;11653;50.848;4.584;2023-04-15T01:22:03;27.20;;;14.03;;
22973;SDS011;11653;50.848;4.584;2023-04-15T01:24:29;21.63;;;13.17;;
22973;SDS011;11653;50.848;4.584;2023-04-15T01:26:56;20.77;;;12.70;;
22973;SDS011;11653;50.848;4.584;2023-04-15T01:29:22;20.90;;;12.30;;
22973;SDS011;11653;50.848;4.584;2023-04-15T01:31:51;18.60;;;11.80;;
22973;SDS011;11653;50.848;4.584;2023-04-15T01:34:17;21.60;;;11.17;;
22973;SDS011;11653;50.848;4.584;2023-04-15T01:36:43;16.77;;;10.83;;
22973;SDS011;11653;50.848;4.584;2023-04-15T01:39:09;17.00;;;10.40;;
22973;SDS011;11653;50.848;4.584;2023-04-15T01:41:34;18.23;;;10.20;;
22973;SDS011;11653;50.848;4.584;2023-04-15T01:44:00;16.87;;;9.60;;
22973;SDS011;11653;50.848;4.584;2023-04-15T01:46:26;18.40;;;9.30;;
22973;SDS011;11653;50.848;4.584;2023-04-15T01:48:52;14.90;;;9.23;;
22973;SDS011;11653;50.848;4.584;2023-04-15T01:51:17;16.10;;;8.60;;
22973;SDS011;11653;50.848;4.584;2023-04-15T01:53:43;19.03;;;9.37;;
22973;SDS011;11653;50.848;4.584;2023-04-15T01:56:09;15.03;;;8.43;;
22973;SDS011;11653;50.848;4.584;2023-04-15T01:58:35;12.33;;;8.03;;
22973;SDS011;11653;50.848;4.584;2023-04-15T02:01:01;15.50;;;9.07;;
22973;SDS011;11653;50.848;4.584;2023-04-15T02:03:28;15.47;;;7.63;;
22973;SDS011;11653;50.848;4.584;2023-04-15T02:05:53;12.93;;;8.37;;
22973;SDS011;11653;50.848;4.584;2023-04-15T02:08:19;14.27;;;7.27;;
22973;SDS011;11653;50.848;4.584;2023-04-15T02:10:45;15.97;;;7.00;;
22973;SDS011;11653;50.848;4.584;2023-04-15T02:13:11;12.90;;;7.17;;
22973;SDS011;11653;50.848;4.584;2023-04-15T02:15:37;10.97;;;6.90;;
22973;SDS011;11653;50.848;4.584;2023-04-15T02:18:03;11.87;;;7.00;;
22973;SDS011;11653;50.848;4.584;2023-04-15T02:20:29;10.00;;;6.53;;
22973;SDS011;11653;50.848;4.584;2023-04-15T02:22:55;9.80;;;6.50;;
22973;SDS011;11653;50.848;4.584;2023-04-15T02:25:21;10.67;;;6.90;;
22973;SDS011;11653;50.848;4.584;2023-04-15T02:27:47;13.27;;;7.23;;
22973;SDS011;11653;50.848;4.584;2023-04-15T02:30:12;9.80;;;6.77;;
22973;SDS011;11653;50.848;4.584;2023-04-15T02:32:39;12.07;;;6.53;;
22973;SDS011;11653;50.848;4.584;2023-04-15T02:35:07;9.17;;;6.63;;
22973;SDS011;11653;50.848;4.584;2023-04-15T02:37:34;11.23;;;6.93;;
22973;SDS011;11653;50.848;4.584;2023-04-15T02:40:05;11.63;;;6.37;;
22973;SDS011;11653;50.848;4.584;2023-04-15T02:42:33;9.17;;;6.27;;
22973;SDS011;11653;50.848;4.584;2023-04-15T02:44:59;14.13;;;6.67;;
22973;SDS011;11653;50.848;4.584;2023-04-15T02:47:25;10.13;;;6.97;;
22973;SDS011;11653;50.848;4.584;2023-04-15T02:49:51;10.83;;;6.77;;
22973;SDS011;11653;50.848;4.584;2023-04-15T02:52:16;10.47;;;6.60;;
22973;SDS011;11653;50.848;4.584;2023-04-15T02:54:42;12.10;;;7.10;;
22973;SDS011;11653;50.848;4.584;2023-04-15T02:57:08;11.67;;;6.43;;
22973;SDS011;11653;50.848;4.584;2023-04-15T02:59:35;11.00;;;6.47;;
22973;SDS011;11653;50.848;4.584;2023-04-15T03:02:01;9.80;;;6.67;;
22973;SDS011;11653;50.848;4.584;2023-04-15T03:04:27;9.07;;;6.63;;
22973;SDS011;11653;50.848;4.584;2023-04-15T03:06:54;10.60;;;6.23;;
22973;SDS011;11653;50.848;4.584;2023-04-15T03:09:20;12.23;;;7.13;;
22973;SDS011;11653;50.848;4.584;2023-04-15T03:11:46;12.70;;;7.03;;
22973;SDS011;11653;50.848;4.584;2023-04-15T03:14:12;13.33;;;7.17;;
22973;SDS011;11653;50.848;4.584;2023-04-15T03:16:37;12.90;;;7.63;;
22973;SDS011;11653;50.848;4.584;2023-04-15T03:19:03;8.57;;;6.23;;
22973;SDS011;11653;50.848;4.584;2023-04-15T03:21:29;12.63;;;6.80;;
22973;SDS011;11653;50.848;4.584;2023-04-15T03:23:54;10.67;;;6.57;;
22973;SDS011;11653;50.848;4.584;2023-04-15T03:26:27;12.30;;;7.30;;
22973;SDS011;11653;50.848;4.584;2023-04-15T03:28:54;14.73;;;7.50;;
22973;SDS011;11653;50.848;4.584;2023-04-15T03:31:19;10.40;;;7.10;;
22973;SDS011;11653;50.848;4.584;2023-04-15T03:33:45;10.93;;;6.77;;
22973;SDS011;11653;50.848;4.584;2023-04-15T03:36:11;10.43;;;7.57;;
22973;SDS011;11653;50.848;4.584;2023-04-15T03:38:36;13.27;;;8.13;;
22973;SDS011;11653;50.848;4.584;2023-04-15T03:41:02;11.90;;;7.60;;
22973;SDS011;11653;50.848;4.584;2023-04-15T03:43:28;15.60;;;7.90;;
22973;SDS011;11653;50.848;4.584;2023-04-15T03:45:53;11.03;;;7.90;;
22973;SDS011;11653;50.848;4.584;2023-04-15T03:48:19;10.57;;;7.70;;
22973;SDS011;11653;50.848;4.584;2023-04-15T03:50:45;14.20;;;8.73;;
22973;SDS011;11653;50.848;4.584;2023-04-15T03:53:11;11.27;;;8.57;;
22973;SDS011;11653;50.848;4.584;2023-04-15T03:55:36;13.50;;;8.40;;
22973;SDS011;11653;50.848;4.584;2023-04-15T03:58:02;11.57;;;8.13;;
22973;SDS011;11653;50.848;4.584;2023-04-15T04:00:27;13.00;;;8.13;;
22973;SDS011;11653;50.848;4.584;2023-04-15T04:02:53;13.20;;;9.03;;
22973;SDS011;11653;50.848;4.584;2023-04-15T04:05:19;11.33;;;8.23;;
22973;SDS011;11653;50.848;4.584;2023-04-15T04:07:45;12.23;;;8.90;;
22973;SDS011;11653;50.848;4.584;2023-04-15T04:10:11;13.90;;;8.73;;
22973;SDS011;11653;50.848;4.584;2023-04-15T04:12:36;15.10;;;9.43;;
22973;SDS011;11653;50.848;4.584;2023-04-15T04:15:02;15.73;;;8.80;;
22973;SDS011;11653;50.848;4.584;2023-04-15T04:17:28;11.30;;;9.00;;
22973;SDS011;11653;50.848;4.584;2023-04-15T04:19:54;14.00;;;9.17;;
22973;SDS011;11653;50.848;4.584;2023-04-15T04:22:23;13.67;;;9.07;;
22973;SDS011;11653;50.848;4.584;2023-04-15T04:24:49;13.87;;;10.00;;
22973;SDS011;11653;50.848;4.584;2023-04-15T04:27:14;12.37;;;8.70;;
22973;SDS011;11653;50.848;4.584;2023-04-15T04:29:40;13.07;;;8.83;;
22973;SDS011;11653;50.848;4.584;2023-04-15T04:32:06;14.50;;;8.83;;
22973;SDS011;11653;50.848;4.584;2023-04-15T04:34:32;12.23;;;8.90;;
22973;SDS011;11653;50.848;4.584;2023-04-15T04:36:58;13.73;;;9.07;;
22973;SDS011;11653;50.848;4.584;2023-04-15T04:39:23;11.43;;;8.80;;
22973;SDS011;11653;50.848;4.584;2023-04-15T04:41:49;13.30;;;9.10;;
22973;SDS011;11653;50.848;4.584;2023-04-15T04:44:16;13.60;;;9.23;;
22973;SDS011;11653;50.848;4.584;2023-04-15T04:46:42;12.47;;;8.97;;
22973;SDS011;11653;50.848;4.584;2023-04-15T04:49:08;13.93;;;8.50;;
22973;SDS011;11653;50.848;4.584;2023-04-15T04:51:33;11.37;;;8.80;;
22973;SDS011;11653;50.848;4.584;2023-04-15T04:53:59;13.53;;;9.13;;
22973;SDS011;11653;50.848;4.584;2023-04-15T04:56:25;13.37;;;8.83;;
22973;SDS011;11653;50.848;4.584;2023-04-15T04:58:51;14.60;;;9.07;;
22973;SDS011;11653;50.848;4.584;2023-04-15T05:01:17;13.33;;;8.53;;
22973;SDS011;11653;50.848;4.584;2023-04-15T05:03:42;14.87;;;9.17;;
22973;SDS011;11653;50.848;4.584;2023-04-15T05:06:08;12.13;;;9.10;;
22973;SDS011;11653;50.848;4.584;2023-04-15T05:08:34;13.20;;;9.10;;
22973;SDS011;11653;50.848;4.584;2023-04-15T05:11:00;15.67;;;9.70;;
22973;SDS011;11653;50.848;4.584;2023-04-15T05:13:27;17.53;;;10.20;;
22973;SDS011;11653;50.848;4.584;2023-04-15T05:15:54;12.20;;;10.27;;
22973;SDS011;11653;50.848;4.584;2023-04-15T05:18:19;17.37;;;9.00;;
22973;SDS011;11653;50.848;4.584;2023-04-15T05:20:45;14.70;;;9.23;;
22973;SDS011;11653;50.848;4.584;2023-04-15T05:23:11;11.23;;;9.37;;
22973;SDS011;11653;50.848;4.584;2023-04-15T05:25:36;15.10;;;9.33;;
22973;SDS011;11653;50.848;4.584;2023-04-15T05:28:03;12.63;;;8.73;;
22973;SDS011;11653;50.848;4.584;2023-04-15T05:30:28;13.70;;;8.67;;
22973;SDS011;11653;50.848;4.584;2023-04-15T05:32:54;16.33;;;8.90;;
22973;SDS011;11653;50.848;4.584;2023-04-15T05:35:20;15.47;;;9.30;;
22973;SDS011;11653;50.848;4.584;2023-04-15T05:37:46;14.97;;;8.93;;
22973;SDS011;11653;50.848;4.584;2023-04-15T05:40:11;15.33;;;9.20;;
22973;SDS011;11653;50.848;4.584;2023-04-15T05:42:37;13.20;;;8.00;;
22973;SDS011;11653;50.848;4.584;2023-04-15T05:45:03;12.70;;;7.93;;
22973;SDS011;11653;50.848;4.584;2023-04-15T05:47:29;14.77;;;8.40;;
22973;SDS011;11653;50.848;4.584;2023-04-15T05:49:55;14.63;;;9.37;;
22973;SDS011;11653;50.848;4.584;2023-04-15T05:52:23;15.13;;;8.53;;
22973;SDS011;11653;50.848;4.584;2023-04-15T05:54:48;13.83;;;7.70;;
22973;SDS011;11653;50.848;4.584;2023-04-15T05:57:14;11.27;;;7.50;;
22973;SDS011;11653;50.848;4.584;2023-04-15T05:59:40;13.93;;;7.40;;
22973;SDS011;11653;50.848;4.584;2023-04-15T06:02:06;16.70;;;7.43;;
22973;SDS011;11653;50.848;4.584;2023-04-15T06:04:37;15.20;;;7.63;;
22973;SDS011;11653;50.848;4.584;2023-04-15T06:07:03;15.47;;;7.23;;
22973;SDS011;11653;50.848;4.584;2023-04-15T06:09:29;14.47;;;7.50;;
22973;SDS011;11653;50.848;4.584;2023-04-15T06:11:54;14.03;;;8.03;;
22973;SDS011;11653;50.848;4.584;2023-04-15T06:14:21;13.07;;;7.30;;
22973;SDS011;11653;50.848;4.584;2023-04-15T06:16:47;12.43;;;7.50;;
22973;SDS011;11653;50.848;4.584;2023-04-15T06:19:13;15.13;;;7.77;;
22973;SDS011;11653;50.848;4.584;2023-04-15T06:21:38;11.90;;;7.60;;
22973;SDS011;11653;50.848;4.584;2023-04-15T06:24:04;11.87;;;7.40;;
22973;SDS011;11653;50.848;4.584;2023-04-15T06:26:30;10.60;;;7.53;;
22973;SDS011;11653;50.848;4.584;2023-04-15T06:28:56;12.53;;;7.57;;
22973;SDS011;11653;50.848;4.584;2023-04-15T06:31:21;16.07;;;8.00;;
22973;SDS011;11653;50.848;4.584;2023-04-15T06:33:47;15.60;;;8.10;;
22973;SDS011;11653;50.848;4.584;2023-04-15T06:36:13;15.50;;;6.87;;
22973;SDS011;11653;50.848;4.584;2023-04-15T06:38:39;15.87;;;7.23;;
22973;SDS011;11653;50.848;4.584;2023-04-15T06:41:04;12.57;;;7.37;;
22973;SDS011;11653;50.848;4.584;2023-04-15T06:43:30;12.37;;;7.30;;
22973;SDS011;11653;50.848;4.584;2023-04-15T06:45:56;11.80;;;6.93;;
22973;SDS011;11653;50.848;4.584;2023-04-15T06:48:23;10.60;;;7.00;;
22973;SDS011;11653;50.848;4.584;2023-04-15T06:50:49;13.70;;;7.40;;
22973;SDS011;11653;50.848;4.584;2023-04-15T06:53:14;12.17;;;6.97;;
22973;SDS011;11653;50.848;4.584;2023-04-15T06:55:40;16.03;;;7.57;;
22973;SDS011;11653;50.848;4.584;2023-04-15T06:58:06;15.17;;;7.70;;
22973;SDS011;11653;50.848;4.584;2023-04-15T07:00:32;12.97;;;6.97;;
22973;SDS011;11653;50.848;4.584;2023-04-15T07:02:58;16.13;;;8.60;;
22973;SDS011;11653;50.848;4.584;2023-04-15T07:05:27;10.00;;;6.80;;
22973;SDS011;11653;50.848;4.584;2023-04-15T07:07:53;14.33;;;7.50;;
22973;SDS011;11653;50.848;4.584;2023-04-15T07:10:19;13.20;;;7.43;;
22973;SDS011;11653;50.848;4.584;2023-04-15T07:12:45;11.77;;;6.60;;
22973;SDS011;11653;50.848;4.584;2023-04-15T07:15:12;11.47;;;6.50;;
22973;SDS011;11653;50.848;4.584;2023-04-15T07:17:37;14.00;;;7.30;;
22973;SDS011;11653;50.848;4.584;2023-04-15T07:20:03;9.83;;;6.10;;
22973;SDS011;11653;50.848;4.584;2023-04-15T07:22:29;14.00;;;7.20;;
22973;SDS011;11653;50.848;4.584;2023-04-15T07:24:55;10.20;;;6.07;;
22973;SDS011;11653;50.848;4.584;2023-04-15T07:27:21;10.93;;;6.60;;
22973;SDS011;11653;50.848;4.584;2023-04-15T07:29:47;8.80;;;5.90;;
22973;SDS011;11653;50.848;4.584;2023-04-15T07:32:13;13.80;;;7.00;;
22973;SDS011;11653;50.848;4.584;2023-04-15T07:34:38;11.50;;;6.63;;
22973;SDS011;11653;50.848;4.584;2023-04-15T07:37:05;12.67;;;7.20;;
22973;SDS011;11653;50.848;4.584;2023-04-15T07:39:31;11.43;;;7.57;;
22973;SDS011;11653;50.848;4.584;2023-04-15T07:41:56;13.03;;;7.33;;
22973;SDS011;11653;50.848;4.584;2023-04-15T07:44:23;11.10;;;7.40;;
22973;SDS011;11653;50.848;4.584;2023-04-15T07:46:49;12.87;;;7.50;;
22973;SDS011;11653;50.848;4.584;2023-04-15T07:49:15;15.10;;;8.00;;
22973;SDS011;11653;50.848;4.584;2023-04-15T07:51:41;13.30;;;8.23;;
22973;SDS011;11653;50.848;4.584;2023-04-15T07:54:06;10.57;;;7.57;;
22973;SDS011;11653;50.848;4.584;2023-04-15T07:56:32;11.47;;;7.13;;
22973;SDS011;11653;50.848;4.584;2023-04-15T07:58:58;12.27;;;7.60;;
22973;SDS011;11653;50.848;4.584;2023-04-15T08:01:26;14.43;;;8.33;;
22973;SDS011;11653;50.848;4.584;2023-04-15T08:03:51;14.97;;;8.73;;
22973;SDS011;11653;50.848;4.584;2023-04-15T08:06:17;16.33;;;8.27;;
22973;SDS011;11653;50.848;4.584;2023-04-15T08:08:43;13.30;;;9.00;;
22973;SDS011;11653;50.848;4.584;2023-04-15T08:11:09;13.63;;;9.20;;
22973;SDS011;11653;50.848;4.584;2023-04-15T08:13:34;11.53;;;8.80;;
22973;SDS011;11653;50.848;4.584;2023-04-15T08:16:15;13.03;;;8.17;;
22973;SDS011;11653;50.848;4.584;2023-04-15T08:18:42;14.47;;;9.47;;
22973;SDS011;11653;50.848;4.584;2023-04-15T08:21:07;13.23;;;8.63;;
22973;SDS011;11653;50.848;4.584;2023-04-15T08:23:34;15.83;;;8.53;;
22973;SDS011;11653;50.848;4.584;2023-04-15T08:25:59;14.73;;;8.97;;
22973;SDS011;11653;50.848;4.584;2023-04-15T08:28:25;13.50;;;7.80;;
22973;SDS011;11653;50.848;4.584;2023-04-15T08:30:54;15.27;;;8.00;;
22973;SDS011;11653;50.848;4.584;2023-04-15T08:33:20;11.70;;;8.07;;
22973;SDS011;11653;50.848;4.584;2023-04-15T08:35:45;11.80;;;6.83;;
22973;SDS011;11653;50.848;4.584;2023-04-15T08:38:12;9.60;;;6.77;;
22973;SDS011;11653;50.848;4.584;2023-04-15T08:40:41;9.07;;;6.63;;
22973;SDS011;11653;50.848;4.584;2023-04-15T08:43:32;13.13;;;6.90;;
22973;SDS011;11653;50.848;4.584;2023-04-15T08:45:59;11.80;;;6.13;;
22973;SDS011;11653;50.848;4.584;2023-04-15T08:48:27;8.10;;;5.47;;
22973;SDS011;11653;50.848;4.584;2023-04-15T08:50:56;8.50;;;5.15;;
22973;SDS011;11653;50.848;4.584;2023-04-15T08:53:23;8.85;;;4.88;;
22973;SDS011;11653;50.848;4.584;2023-04-15T08:55:50;8.25;;;4.72;;
22973;SDS011;11653;50.848;4.584;2023-04-15T08:58:17;10.73;;;5.20;;
22973;SDS011;11653;50.848;4.584;2023-04-15T09:00:44;9.20;;;4.72;;
22973;SDS011;11653;50.848;4.584;2023-04-15T09:03:09;8.65;;;5.43;;
22973;SDS011;11653;50.848;4.584;2023-04-15T09:05:35;9.77;;;5.90;;
22973;SDS011;11653;50.848;4.584;2023-04-15T09:08:02;9.45;;;5.40;;
22973;SDS011;11653;50.848;4.584;2023-04-15T09:10:29;10.37;;;6.13;;
22973;SDS011;11653;50.848;4.584;2023-04-15T09:12:55;9.83;;;5.93;;
22973;SDS011;11653;50.848;4.584;2023-04-15T09:15:23;8.07;;;5.30;;
22973;SDS011;11653;50.848;4.584;2023-04-15T09:17:50;9.73;;;6.07;;
22973;SDS011;11653;50.848;4.584;2023-04-15T09:20:16;11.33;;;5.77;;
22973;SDS011;11653;50.848;4.584;2023-04-15T09:22:45;11.83;;;5.43;;
22973;SDS011;11653;50.848;4.584;2023-04-15T09:27:50;11.80;;;6.10;;
22973;SDS011;11653;50.848;4.584;2023-04-15T09:30:17;6.63;;;5.93;;
22973;SDS011;11653;50.848;4.584;2023-04-15T09:32:48;9.43;;;6.17;;
22973;SDS011;11653;50.848;4.584;2023-04-15T09:35:18;11.10;;;6.23;;
22973;SDS011;11653;50.848;4.584;2023-04-15T09:37:45;9.77;;;6.47;;
22973;SDS011;11653;50.848;4.584;2023-04-15T09:40:11;9.60;;;6.07;;
22973;SDS011;11653;50.848;4.584;2023-04-15T09:42:53;7.90;;;6.00;;
22973;SDS011;11653;50.848;4.584;2023-04-15T09:45:20;8.37;;;5.43;;
22973;SDS011;11653;50.848;4.584;2023-04-15T09:47:46;8.57;;;5.23;;
22973;SDS011;11653;50.848;4.584;2023-04-15T09:50:12;9.80;;;5.37;;
22973;SDS011;11653;50.848;4.584;2023-04-15T09:52:42;7.30;;;4.20;;
22973;SDS011;11653;50.848;4.584;2023-04-15T09:55:08;9.63;;;5.10;;
22973;SDS011;11653;50.848;4.584;2023-04-15T09:57:35;8.43;;;4.57;;
22973;SDS011;11653;50.848;4.584;2023-04-15T10:00:05;6.57;;;4.87;;
22973;SDS011;11653;50.848;4.584;2023-04-15T10:02:33;6.13;;;4.47;;
22973;SDS011;11653;50.848;4.584;2023-04-15T10:05:00;8.67;;;4.83;;
22973;SDS011;11653;50.848;4.584;2023-04-15T10:07:27;5.77;;;4.60;;
22973;SDS011;11653;50.848;4.584;2023-04-15T10:09:53;6.33;;;4.67;;
22973;SDS011;11653;50.848;4.584;2023-04-15T10:12:20;7.33;;;4.27;;
22973;SDS011;11653;50.848;4.584;2023-04-15T10:14:47;5.80;;;4.00;;
22973;SDS011;11653;50.848;4.584;2023-04-15T10:17:17;7.33;;;4.23;;
22973;SDS011;11653;50.848;4.584;2023-04-15T10:19:47;4.97;;;3.33;;
22973;SDS011;11653;50.848;4.584;2023-04-15T10:22:14;4.67;;;4.10;;
22973;SDS011;11653;50.848;4.584;2023-04-15T10:24:41;5.37;;;4.03;;
22973;SDS011;11653;50.848;4.584;2023-04-15T10:27:09;7.00;;;4.00;;
22973;SDS011;11653;50.848;4.584;2023-04-15T10:29:35;6.10;;;3.90;;
22973;SDS011;11653;50.848;4.584;2023-04-15T10:32:01;5.60;;;4.23;;
22973;SDS011;11653;50.848;4.584;2023-04-15T10:34:27;6.20;;;3.67;;
22973;SDS011;11653;50.848;4.584;2023-04-15T10:36:55;6.90;;;3.40;;
22973;SDS011;11653;50.848;4.584;2023-04-15T10:42:09;5.50;;;2.60;;
22973;SDS011;11653;50.848;4.584;2023-04-15T10:44:36;3.17;;;2.17;;
22973;SDS011;11653;50.848;4.584;2023-04-15T10:47:10;4.83;;;2.63;;
22973;SDS011;11653;50.848;4.584;2023-04-15T10:52:30;4.57;;;2.30;;
22973;SDS011;11653;50.848;4.584;2023-04-15T10:55:15;4.07;;;2.40;;
22973;SDS011;11653;50.848;4.584;2023-04-15T10:57:51;5.63;;;3.13;;
22973;SDS011;11653;50.848;4.584;2023-04-15T11:00:18;4.93;;;3.33;;
22973;SDS011;11653;50.848;4.584;2023-04-15T11:02:52;5.37;;;3.40;;
22973;SDS011;11653;50.848;4.584;2023-04-15T11:05:21;5.68;;;3.42;;
22973;SDS011;11653;50.848;4.584;2023-04-15T11:07:52;7.07;;;2.97;;
22973;SDS011;11653;50.848;4.584;2023-04-15T11:12:56;5.97;;;4.00;;
22973;SDS011;11653;50.848;4.584;2023-04-15T11:18:10;6.63;;;4.63;;
22973;SDS011;11653;50.848;4.584;2023-04-15T11:21:21;6.03;;;3.55;;
22973;SDS011;11653;50.848;4.584;2023-04-15T11:23:30;4.65;;;3.28;;
22973;SDS011;11653;50.848;4.584;2023-04-15T11:26:04;4.50;;;2.85;;
22973;SDS011;11653;50.848;4.584;2023-04-15T11:28:35;5.47;;;2.70;;
22973;SDS011;11653;50.848;4.584;2023-04-15T11:31:06;4.27;;;3.00;;
22973;SDS011;11653;50.848;4.584;2023-04-15T11:33:34;4.70;;;2.83;;
22973;SDS011;11653;50.848;4.584;2023-04-15T11:36:00;4.70;;;2.93;;
22973;SDS011;11653;50.848;4.584;2023-04-15T11:38:26;6.35;;;3.20;;
22973;SDS011;11653;50.848;4.584;2023-04-15T11:40:52;3.70;;;3.28;;
22973;SDS011;11653;50.848;4.584;2023-04-15T11:43:18;5.07;;;3.08;;
22973;SDS011;11653;50.848;4.584;2023-04-15T11:45:55;4.68;;;3.40;;
22973;SDS011;11653;50.848;4.584;2023-04-15T11:48:24;3.17;;;2.70;;
22973;SDS011;11653;50.848;4.584;2023-04-15T11:50:55;5.72;;;3.15;;
22973;SDS011;11653;50.848;4.584;2023-04-15T11:53:24;5.30;;;3.78;;
22973;SDS011;11653;50.848;4.584;2023-04-15T11:56:15;4.93;;;2.85;;
22973;SDS011;11653;50.848;4.584;2023-04-15T11:58:43;3.58;;;2.70;;
22973;SDS011;11653;50.848;4.584;2023-04-15T12:01:10;3.90;;;3.03;;
22973;SDS011;11653;50.848;4.584;2023-04-15T12:03:40;4.07;;;2.85;;
22973;SDS011;11653;50.848;4.584;2023-04-15T12:16:45;3.58;;;2.28;;
22973;SDS011;11653;50.848;4.584;2023-04-15T12:19:25;4.53;;;2.40;;
22973;SDS011;11653;50.848;4.584;2023-04-15T12:21:54;2.63;;;2.13;;
22973;SDS011;11653;50.848;4.584;2023-04-15T12:24:32;4.20;;;2.43;;
22973;SDS011;11653;50.848;4.584;2023-04-15T12:27:03;3.23;;;2.20;;
22973;SDS011;11653;50.848;4.584;2023-04-15T12:29:36;3.63;;;2.17;;
22973;SDS011;11653;50.848;4.584;2023-04-15T12:34:38;4.63;;;2.63;;
22973;SDS011;11653;50.848;4.584;2023-04-15T12:37:06;3.77;;;2.33;;
22973;SDS011;11653;50.848;4.584;2023-04-15T12:39:37;3.83;;;2.20;;
22973;SDS011;11653;50.848;4.584;2023-04-15T12:42:05;1.93;;;1.60;;
22973;SDS011;11653;50.848;4.584;2023-04-15T12:44:32;2.30;;;1.30;;
22973;SDS011;11653;50.848;4.584;2023-04-15T12:46:59;2.00;;;1.40;;
22973;SDS011;11653;50.848;4.584;2023-04-15T12:49:25;3.43;;;1.97;;
22973;SDS011;11653;50.848;4.584;2023-04-15T12:51:52;3.70;;;1.57;;
22973;SDS011;11653;50.848;4.584;2023-04-15T12:54:19;4.27;;;1.70;;
22973;SDS011;11653;50.848;4.584;2023-04-15T12:56:46;3.57;;;1.70;;
22973;SDS011;11653;50.848;4.584;2023-04-15T12:59:12;4.53;;;2.37;;
22973;SDS011;11653;50.848;4.584;2023-04-15T13:01:38;3.63;;;2.77;;
22973;SDS011;11653;50.848;4.584;2023-04-15T13:04:05;3.00;;;2.30;;
22973;SDS011;11653;50.848;4.584;2023-04-15T13:06:31;4.63;;;2.30;;
22973;SDS011;11653;50.848;4.584;2023-04-15T13:09:00;4.70;;;2.30;;
22973;SDS011;11653;50.848;4.584;2023-04-15T13:11:27;3.67;;;2.10;;
22973;SDS011;11653;50.848;4.584;2023-04-15T13:14:02;5.00;;;2.30;;
22973;SDS011;11653;50.848;4.584;2023-04-15T13:16:29;2.67;;;2.00;;
22973;SDS011;11653;50.848;4.584;2023-04-15T13:18:56;2.37;;;1.90;;
22973;SDS011;11653;50.848;4.584;2023-04-15T13:21:22;1.83;;;1.50;;
22973;SDS011;11653;50.848;4.584;2023-04-15T13:23:48;3.17;;;2.20;;
22973;SDS011;11653;50.848;4.584;2023-04-15T13:26:15;3.23;;;2.00;;
22973;SDS011;11653;50.848;4.584;2023-04-15T13:28:41;4.87;;;2.10;;
22973;SDS011;11653;50.848;4.584;2023-04-15T13:31:07;5.57;;;1.90;;
22973;SDS011;11653;50.848;4.584;2023-04-15T13:33:32;2.17;;;1.67;;
22973;SDS011;11653;50.848;4.584;2023-04-15T13:35:58;3.70;;;1.63;;
22973;SDS011;11653;50.848;4.584;2023-04-15T13:38:24;3.00;;;2.40;;
22973;SDS011;11653;50.848;4.584;2023-04-15T13:40:50;7.20;;;3.03;;
22973;SDS011;11653;50.848;4.584;2023-04-15T13:43:15;3.90;;;2.37;;
22973;SDS011;11653;50.848;4.584;2023-04-15T13:45:41;2.67;;;2.10;;
22973;SDS011;11653;50.848;4.584;2023-04-15T13:48:07;3.70;;;2.07;;
22973;SDS011;11653;50.848;4.584;2023-04-15T13:50:33;4.13;;;2.13;;
22973;SDS011;11653;50.848;4.584;2023-04-15T13:52:59;4.27;;;1.90;;
22973;SDS011;11653;50.848;4.584;2023-04-15T13:55:24;2.80;;;2.20;;
22973;SDS011;11653;50.848;4.584;2023-04-15T13:57:50;6.53;;;2.50;;
22973;SDS011;11653;50.848;4.584;2023-04-15T14:00:16;4.10;;;2.70;;
22973;SDS011;11653;50.848;4.584;2023-04-15T14:02:42;4.03;;;2.30;;
22973;SDS011;11653;50.848;4.584;2023-04-15T14:05:08;8.17;;;2.50;;
22973;SDS011;11653;50.848;4.584;2023-04-15T14:07:34;3.10;;;2.10;;
22973;SDS011;11653;50.848;4.584;2023-04-15T14:09:59;4.43;;;1.90;;
22973;SDS011;11653;50.848;4.584;2023-04-15T14:12:25;4.30;;;2.13;;
22973;SDS011;11653;50.848;4.584;2023-04-15T14:14:51;3.67;;;2.00;;
22973;SDS011;11653;50.848;4.584;2023-04-15T14:17:17;6.07;;;1.77;;
22973;SDS011;11653;50.848;4.584;2023-04-15T14:19:42;4.07;;;1.30;;
22973;SDS011;11653;50.848;4.584;2023-04-15T14:22:08;2.30;;;1.10;;
22973;SDS011;11653;50.848;4.584;2023-04-15T14:24:34;2.93;;;1.07;;
22973;SDS011;11653;50.848;4.584;2023-04-15T14:26:59;2.50;;;1.10;;
22973;SDS011;11653;50.848;4.584;2023-04-15T14:29:26;1.37;;;0.83;;
22973;SDS011;11653;50.848;4.584;2023-04-15T14:31:52;4.03;;;0.90;;
22973;SDS011;11653;50.848;4.584;2023-04-15T14:34:18;6.77;;;1.90;;
22973;SDS011;11653;50.848;4.584;2023-04-15T14:36:46;1.93;;;1.10;;
22973;SDS011;11653;50.848;4.584;2023-04-15T14:39:12;9.03;;;2.83;;
22973;SDS011;11653;50.848;4.584;2023-04-15T14:41:38;20.90;;;5.00;;
22973;SDS011;11653;50.848;4.584;2023-04-15T14:44:03;3.63;;;1.40;;
22973;SDS011;11653;50.848;4.584;2023-04-15T14:46:29;38.50;;;10.00;;
22973;SDS011;11653;50.848;4.584;2023-04-15T14:48:55;5.93;;;1.83;;
22973;SDS011;11653;50.848;4.584;2023-04-15T14:51:21;3.00;;;1.60;;
22973;SDS011;11653;50.848;4.584;2023-04-15T14:53:47;13.13;;;5.07;;
22973;SDS011;11653;50.848;4.584;2023-04-15T14:56:13;2.33;;;1.80;;
22973;SDS011;11653;50.848;4.584;2023-04-15T14:58:38;5.63;;;1.67;;
22973;SDS011;11653;50.848;4.584;2023-04-15T15:01:04;5.10;;;1.70;;
22973;SDS011;11653;50.848;4.584;2023-04-15T15:03:30;2.67;;;1.00;;